CheckWX is a tool to help pilots better visualize weather data.  It is not intended as a substitute for an official pre-flight weather briefing.

05:54:03 UTC

FAHS METAR
Hoedspruit Air Force Base Airport
Hoedspruit, South Africa
Current

54 mins ago

FAHS 200500Z AUTO 28002KT //// // ////// 19/18 Q1018
Observed
Feb-20 @ 05:00 UTC
Wind
  • 280° at 2 KTS
Visibility
Temperature
19°C / 66°F
Dewpoint
18°C / 64°F
Humidity
94%
Altimeter
30.06" Hg
Pressure
1017.92 hPa
Previous

2 hours ago

FAHS 200400Z AUTO 26001KT //// // ////// 18/18 Q1017
Observed
Feb-20 @ 04:00 UTC
Wind
  • 260° at 1 KTS
Visibility
Temperature
18°C / 64°F
Dewpoint
18°C / 64°F
Humidity
100%
Altimeter
30.03" Hg
Pressure
1016.92 hPa
Previous

3 hours ago

FAHS 200300Z AUTO 19002KT //// // ////// 19/18 Q1017
Observed
Feb-20 @ 03:00 UTC
Wind
  • 190° at 2 KTS
Visibility
Temperature
19°C / 66°F
Dewpoint
18°C / 64°F
Humidity
94%
Altimeter
30.03" Hg
Pressure
1016.92 hPa